Time;durP1;ratioP1;P1;durP2;ratioP2;P2;SDS_P1;SDS_P2;PMS_P1;PMS_P2;Temp;Humidity;BMP_temperature;BMP_pressure;BME280_temperature;BME280_humidity;BME280_pressure;Samples;Min_cycle;Max_cycle;Signal;HPM_P1;HPM_P2
2023/06/21 00:01:38;;;;;;;19.20;8.63;;;;;;;21.75;68.51;96115.41;4969572;28;20471;-68
2023/06/21 00:04:07;;;;;;;30.47;9.87;;;;;;;22.13;66.14;96106.44;4969581;28;20781;-67
2023/06/21 00:06:34;;;;;;;20.17;7.60;;;;;;;22.33;65.71;96101.06;4968595;28;20509;-70
2023/06/21 00:09:03;;;;;;;24.80;8.53;;;;;;;22.38;65.34;96106.81;4970164;28;20460;-69
2023/06/21 00:11:32;;;;;;;22.17;7.07;;;;;;;22.46;65.36;96098.88;4969480;28;20440;-70
2023/06/21 00:13:58;;;;;;;17.97;7.43;;;;;;;22.02;66.95;96095.13;4969344;28;20926;-69
2023/06/21 00:16:24;;;;;;;12.63;6.50;;;;;;;22.01;67.12;96088.91;4969058;28;20420;-68
2023/06/21 00:18:49;;;;;;;15.33;7.83;;;;;;;22.09;66.87;96086.38;4969768;28;20198;-70
2023/06/21 00:21:15;;;;;;;9.20;5.57;;;;;;;22.06;66.84;96086.63;4970538;28;20284;-68
2023/06/21 00:23:43;;;;;;;16.87;8.73;;;;;;;22.17;66.37;96088.31;4969226;28;20177;-69
2023/06/21 00:26:09;;;;;;;13.43;6.00;;;;;;;22.32;65.94;96086.88;4969932;28;20216;-70
2023/06/21 00:28:34;;;;;;;13.37;7.20;;;;;;;22.32;65.66;96086.00;4969611;28;20425;-69
2023/06/21 00:30:59;;;;;;;13.23;7.57;;;;;;;22.33;65.80;96093.06;4969460;28;20166;-70
2023/06/21 00:33:25;;;;;;;10.27;6.67;;;;;;;22.45;65.47;96083.84;4969153;28;20177;-69
2023/06/21 00:35:51;;;;;;;12.43;6.63;;;;;;;22.36;65.77;96082.91;4969566;28;20220;-68
2023/06/21 00:38:16;;;;;;;14.53;7.07;;;;;;;22.33;66.01;96079.69;4969815;28;20630;-68
2023/06/21 00:40:42;;;;;;;21.23;8.67;;;;;;;22.26;66.04;96081.28;4969506;28;20174;-71
2023/06/21 00:43:07;;;;;;;13.37;6.73;;;;;;;22.19;66.60;96091.66;4969113;28;20300;-69
2023/06/21 00:45:38;;;;;;;14.17;6.83;;;;;;;22.19;66.56;96091.66;4968879;28;20214;-69
2023/06/21 00:48:04;;;;;;;12.73;6.90;;;;;;;22.18;66.65;96089.97;4969081;28;20272;-70
2023/06/21 00:50:29;;;;;;;53.80;11.23;;;;;;;22.25;66.13;96087.59;4969143;28;21240;-70
2023/06/21 00:52:55;;;;;;;12.13;6.63;;;;;;;22.26;66.31;96086.63;4968493;28;20233;-69
2023/06/21 00:55:23;;;;;;;18.50;7.13;;;;;;;22.25;66.20;96083.06;4968761;28;20284;-69
2023/06/21 00:57:49;;;;;;;14.27;7.10;;;;;;;22.22;66.14;96079.88;4969148;28;20190;-70
2023/06/21 01:00:22;;;;;;;28.77;8.50;;;;;;;22.18;66.24;96080.16;4968722;28;20803;-68
2023/06/21 01:02:50;;;;;;;16.70;8.27;;;;;;;22.11;66.56;96088.88;4969264;28;20907;-69
2023/06/21 01:05:16;;;;;;;42.40;9.40;;;;;;;22.12;66.58;96091.41;4970374;28;20457;-70
2023/06/21 01:08:00;;;;;;;32.00;9.47;;;;;;;22.07;66.62;96103.53;4968771;28;20416;-69
2023/06/21 01:10:44;;;;;;;14.90;7.40;;;;;;;22.13;66.42;96103.78;4968660;28;20405;-70
2023/06/21 01:13:23;;;;;;;19.53;8.33;;;;;;;22.09;66.70;96110.41;4968605;28;20437;-69
2023/06/21 01:15:54;;;;;;;30.83;9.40;;;;;;;22.15;66.74;96115.16;4968282;28;20897;-69
2023/06/21 01:18:22;;;;;;;18.70;7.63;;;;;;;22.19;66.30;96115.72;4968438;28;20409;-68
2023/06/21 01:20:53;;;;;;;58.63;11.57;;;;;;;22.19;66.43;96113.88;4968413;28;20784;-67
2023/06/21 01:23:30;;;;;;;20.20;7.80;;;;;;;22.15;66.70;96125.84;4968387;28;20445;-69
2023/06/21 01:26:17;;;;;;;13.87;7.63;;;;;;;22.16;66.09;96122.22;4968521;28;20519;-70
2023/06/21 01:29:04;;;;;;;15.57;7.47;;;;;;;22.06;66.79;96134.75;4967436;28;20990;-69
2023/06/21 01:31:30;;;;;;;23.33;8.97;;;;;;;22.08;66.20;96132.75;4966862;28;20904;-69
2023/06/21 01:33:57;;;;;;;12.33;7.27;;;;;;;22.10;66.04;96138.81;4967864;28;20409;-69
2023/06/21 01:36:23;;;;;;;13.23;6.93;;;;;;;22.09;65.89;96142.47;4968099;28;20407;-68
2023/06/21 01:38:54;;;;;;;10.73;7.30;;;;;;;22.17;65.75;96137.25;4968014;28;20409;-69
2023/06/21 01:41:19;;;;;;;13.87;7.67;;;;;;;22.21;65.68;96134.34;4968124;28;20275;-70
2023/06/21 01:43:45;;;;;;;56.03;13.57;;;;;;;22.10;65.74;96136.13;4968148;28;20524;-69
2023/06/21 01:46:12;;;;;;;14.23;7.10;;;;;;;22.18;65.38;96133.59;4968036;28;20715;-68
2023/06/21 01:48:38;;;;;;;12.80;6.67;;;;;;;22.18;65.18;96144.28;4967958;28;20204;-68
2023/06/21 01:51:04;;;;;;;11.77;8.37;;;;;;;22.06;65.67;96147.25;4967424;28;20509;-69
2023/06/21 01:53:33;;;;;;;14.13;7.63;;;;;;;21.95;65.73;96148.28;4967452;28;20837;-70
2023/06/21 01:56:01;;;;;;;13.23;7.33;;;;;;;21.97;65.60;96146.31;4967809;28;20414;-70
2023/06/21 01:58:28;;;;;;;21.63;8.10;;;;;;;21.92;66.13;96152.09;4967706;28;20425;-70
2023/06/21 02:00:55;;;;;;;12.83;7.40;;;;;;;21.98;65.53;96148.81;4967657;28;20500;-67
2023/06/21 02:03:22;;;;;;;13.63;7.50;;;;;;;21.88;65.94;96150.69;4967370;28;20812;-67
2023/06/21 02:05:49;;;;;;;12.10;8.53;;;;;;;21.93;65.81;96153.75;4967480;28;20461;-68
2023/06/21 02:08:18;;;;;;;40.20;10.70;;;;;;;21.95;65.87;96149.13;4967566;28;20914;-69
2023/06/21 02:10:44;;;;;;;16.83;8.77;;;;;;;22.04;65.39;96147.44;4967694;28;20408;-70
2023/06/21 02:13:10;;;;;;;14.00;7.53;;;;;;;22.16;64.91;96154.28;4967592;28;20425;-70
2023/06/21 02:15:38;;;;;;;13.90;7.93;;;;;;;22.18;64.96;96152.31;4967165;28;20412;-69
2023/06/21 02:18:03;;;;;;;10.60;7.97;;;;;;;22.13;65.22;96159.91;4967289;28;20181;-69
2023/06/21 02:20:28;;;;;;;11.10;8.60;;;;;;;22.06;65.44;96161.47;4967543;28;20440;-70
2023/06/21 02:22:54;;;;;;;17.50;8.60;;;;;;;22.05;65.50;96166.97;4967237;28;20683;-70
2023/06/21 02:25:21;;;;;;;18.50;8.60;;;;;;;22.00;65.72;96162.06;4966776;28;20205;-70
2023/06/21 02:27:47;;;;;;;26.77;10.00;;;;;;;21.95;65.90;96167.00;4967442;28;20177;-67
2023/06/21 02:30:12;;;;;;;11.93;8.70;;;;;;;21.93;65.74;96177.81;4967273;28;20413;-70
2023/06/21 02:32:38;;;;;;;22.20;9.00;;;;;;;21.88;65.58;96171.22;4967081;28;20200;-68
2023/06/21 02:35:05;;;;;;;32.30;11.20;;;;;;;21.88;65.63;96190.75;4967228;28;20856;-71
2023/06/21 02:37:30;;;;;;;15.73;8.93;;;;;;;21.86;65.68;96189.22;4967049;28;20170;-67
2023/06/21 02:39:56;;;;;;;35.33;10.13;;;;;;;21.82;65.65;96201.16;4968002;28;20447;-69
2023/06/21 02:42:22;;;;;;;16.93;7.63;;;;;;;21.86;65.59;96197.22;4971354;28;20204;-69
2023/06/21 02:44:48;;;;;;;39.27;10.80;;;;;;;21.84;65.50;96208.06;4970862;28;20460;-69
2023/06/21 02:47:13;;;;;;;23.23;11.27;;;;;;;21.75;65.88;96217.75;4970905;28;20177;-69
2023/06/21 02:49:38;;;;;;;23.10;9.53;;;;;;;21.82;65.57;96210.00;4970976;28;20178;-70
2023/06/21 02:52:04;;;;;;;23.67;9.83;;;;;;;21.71;65.79;96216.38;4970963;28;20226;-70
2023/06/21 02:54:30;;;;;;;34.40;10.83;;;;;;;21.78;65.54;96212.13;4971011;28;20170;-68
2023/06/21 02:56:56;;;;;;;18.50;8.90;;;;;;;21.61;66.19;96212.00;4970738;28;20181;-68
2023/06/21 02:59:22;;;;;;;21.43;9.07;;;;;;;21.61;66.24;96204.81;4970704;28;20420;-69
2023/06/21 03:01:48;;;;;;;22.37;10.33;;;;;;;21.72;65.43;96199.34;4971352;28;20293;-69
2023/06/21 03:04:18;;;;;;;13.43;10.50;;;;;;;21.82;65.42;96204.66;4970850;28;20173;-69
2023/06/21 03:06:44;;;;;;;17.57;10.70;;;;;;;21.70;65.61;96197.78;4971075;28;20543;-70
2023/06/21 03:09:09;;;;;;;19.20;9.90;;;;;;;21.65;66.06;96192.03;4970816;28;20483;-69
2023/06/21 03:11:35;;;;;;;15.33;9.10;;;;;;;21.87;65.22;96175.69;4970708;28;20194;-68
2023/06/21 03:14:00;;;;;;;30.50;9.90;;;;;;;21.98;65.01;96190.75;4970665;28;20260;-69
2023/06/21 03:16:25;;;;;;;35.33;10.80;;;;;;;21.81;65.76;96196.81;4970950;28;20177;-69
2023/06/21 03:18:51;;;;;;;16.20;8.90;;;;;;;21.93;65.26;96201.03;4969971;28;20177;-69
2023/06/21 03:21:16;;;;;;;28.23;11.03;;;;;;;21.79;65.33;96215.66;4970750;28;20603;-68
2023/06/21 03:23:42;;;;;;;32.33;10.87;;;;;;;21.83;65.29;96209.03;4970467;28;20180;-68
2023/06/21 03:26:07;;;;;;;28.13;10.53;;;;;;;21.87;65.35;96214.94;4970685;28;20216;-68
2023/06/21 03:28:33;;;;;;;19.47;8.27;;;;;;;21.63;65.98;96226.88;4971040;28;20252;-69
2023/06/21 03:30:58;;;;;;;25.83;9.83;;;;;;;21.68;66.04;96226.47;4970290;28;20177;-69
2023/06/21 03:33:26;;;;;;;15.37;8.33;;;;;;;21.72;65.69;96235.88;4970374;28;20249;-69
2023/06/21 03:35:51;;;;;;;16.97;9.63;;;;;;;21.65;65.87;96235.59;4973157;28;20637;-69
2023/06/21 03:38:19;;;;;;;22.10;10.90;;;;;;;21.71;65.90;96234.22;4970763;28;20413;-69
2023/06/21 03:40:45;;;;;;;21.33;13.23;;;;;;;21.69;66.25;96237.03;4970278;28;20170;-69
2023/06/21 03:43:10;;;;;;;20.33;10.47;;;;;;;21.73;65.59;96241.09;4970041;28;20542;-69
2023/06/21 03:45:36;;;;;;;39.80;10.83;;;;;;;21.67;65.86;96259.50;4969962;28;20256;-69
2023/06/21 03:48:05;;;;;;;27.67;11.30;;;;;;;21.72;65.86;96271.44;4970198;28;20196;-69
2023/06/21 03:50:30;;;;;;;40.20;10.87;;;;;;;21.85;65.08;96259.63;4971298;28;20181;-69
2023/06/21 03:52:55;;;;;;;17.30;10.83;;;;;;;21.73;65.60;96245.56;4970019;28;20433;-69
2023/06/21 03:55:21;;;;;;;14.43;9.27;;;;;;;21.85;65.29;96244.47;4967444;28;20184;-70
2023/06/21 03:57:46;;;;;;;42.63;12.40;;;;;;;21.84;66.05;96241.94;4963520;28;20700;-69
2023/06/21 04:00:13;;;;;;;12.13;8.60;;;;;;;22.13;64.62;96218.69;4967708;28;20186;-69
2023/06/21 04:02:39;;;;;;;22.33;8.90;;;;;;;22.37;63.63;96244.16;4968250;28;20201;-70
2023/06/21 04:05:05;;;;;;;21.60;9.87;;;;;;;22.64;63.00;96293.38;4963362;28;20479;-67
2023/06/21 04:07:30;;;;;;;24.47;11.93;;;;;;;22.16;64.98;96316.47;4965580;28;20899;-69
2023/06/21 04:09:56;;;;;;;17.30;11.80;;;;;;;21.97;65.93;96312.81;4966739;28;20494;-69
2023/06/21 04:12:21;;;;;;;15.33;10.37;;;;;;;21.69;66.74;96303.78;4957137;28;20227;-69
2023/06/21 04:14:47;;;;;;;35.80;11.30;;;;;;;21.82;66.99;96292.00;4960971;28;20193;-68
2023/06/21 04:17:12;;;;;;;16.93;10.87;;;;;;;22.23;65.68;96311.41;4964694;28;20189;-68
2023/06/21 04:19:38;;;;;;;20.67;10.50;;;;;;;21.93;67.03;96306.06;4963858;28;20249;-69
2023/06/21 04:22:03;;;;;;;15.80;9.57;;;;;;;21.68;67.33;96296.75;4960519;28;20252;-70
2023/06/21 04:24:29;;;;;;;28.40;10.07;;;;;;;21.52;67.45;96299.09;4955378;28;20252;-70
2023/06/21 04:26:57;;;;;;;18.50;9.87;;;;;;;22.09;65.52;96310.84;4964027;28;20208;-69
2023/06/21 04:29:24;;;;;;;31.80;14.07;;;;;;;21.75;67.41;96319.25;4967742;28;20205;-70
2023/06/21 04:31:52;;;;;;;32.00;12.67;;;;;;;21.64;68.14;96315.84;4963698;28;20460;-70
2023/06/21 04:34:17;;;;;;;34.13;13.00;;;;;;;21.93;66.71;96306.06;4956448;28;20426;-70
2023/06/21 04:36:47;;;;;;;18.30;10.30;;;;;;;22.11;66.70;96298.19;4951766;28;20791;-69
2023/06/21 04:39:15;;;;;;;23.93;11.10;;;;;;;22.37;65.56;96324.34;4967033;28;20264;-69
2023/06/21 04:41:40;;;;;;;25.47;12.07;;;;;;;22.35;66.28;96339.72;4968621;28;21186;-70
2023/06/21 04:44:05;;;;;;;18.83;12.43;;;;;;;22.02;68.40;96341.78;4966350;28;20439;-70
2023/06/21 04:46:31;;;;;;;17.87;9.67;;;;;;;21.90;67.95;96350.94;4964559;28;20189;-68
2023/06/21 04:48:56;;;;;;;24.43;13.13;;;;;;;22.00;68.39;96351.78;4960229;28;20190;-70
2023/06/21 04:51:21;;;;;;;26.13;14.37;;;;;;;22.08;68.08;96351.06;4966186;28;20293;-67
2023/06/21 04:53:48;;;;;;;15.87;10.57;;;;;;;22.22;67.31;96334.63;4967770;28;20228;-70
2023/06/21 04:56:14;;;;;;;20.90;11.93;;;;;;;22.15;67.77;96339.66;4959725;28;20236;-70
2023/06/21 04:58:40;;;;;;;30.43;18.40;;;;;;;22.16;68.43;96346.72;4958196;28;20433;-69
2023/06/21 05:01:06;;;;;;;25.80;15.70;;;;;;;22.16;68.20;96346.72;4965557;28;20680;-69
2023/06/21 05:03:32;;;;;;;18.00;12.43;;;;;;;22.13;68.51;96341.63;4964559;28;20631;-68
2023/06/21 05:05:59;;;;;;;17.23;13.20;;;;;;;22.21;67.95;96329.47;4964650;28;20469;-70
2023/06/21 05:08:24;;;;;;;17.40;12.83;;;;;;;22.07;68.29;96334.19;4962522;28;20439;-68
2023/06/21 05:10:50;;;;;;;18.00;12.67;;;;;;;21.75;69.91;96335.28;4957810;28;20502;-69
2023/06/21 05:13:15;;;;;;;23.10;13.10;;;;;;;21.63;70.58;96344.38;4957047;28;20655;-69
2023/06/21 05:15:41;;;;;;;20.30;11.63;;;;;;;21.85;70.23;96342.47;4961473;28;20554;-68
2023/06/21 05:18:06;;;;;;;16.43;13.60;;;;;;;21.81;70.67;96343.75;4965706;28;20182;-70
2023/06/21 05:20:32;;;;;;;20.70;12.30;;;;;;;21.77;69.64;96352.00;4965044;28;20620;-70
2023/06/21 05:22:57;;;;;;;12.57;11.30;;;;;;;21.68;69.78;96357.34;4965453;28;20205;-69
2023/06/21 05:25:23;;;;;;;16.80;12.50;;;;;;;21.70;69.79;96366.06;4966085;28;20278;-71
2023/06/21 05:27:48;;;;;;;26.27;13.40;;;;;;;21.61;70.24;96377.56;4965886;28;20363;-69
2023/06/21 05:30:14;;;;;;;18.17;13.13;;;;;;;21.64;70.08;96380.81;4966297;28;20190;-69
2023/06/21 05:32:39;;;;;;;15.70;11.47;;;;;;;21.78;69.33;96361.72;4967475;28;21087;-71
2023/06/21 05:35:05;;;;;;;20.10;13.53;;;;;;;21.79;69.41;96359.91;4967637;28;20277;-71
2023/06/21 05:37:30;;;;;;;23.20;13.50;;;;;;;21.87;69.12;96362.69;4964699;28;20180;-70
2023/06/21 05:40:00;;;;;;;32.63;14.00;;;;;;;22.26;67.88;96360.13;4965668;28;20181;-69
2023/06/21 05:42:26;;;;;;;38.07;14.77;;;;;;;22.35;67.75;96351.25;4965929;28;20371;-69
2023/06/21 05:44:51;;;;;;;45.00;14.60;;;;;;;22.51;67.44;96358.72;4965974;28;20555;-70
2023/06/21 05:47:17;;;;;;;24.50;13.80;;;;;;;22.87;65.03;96356.25;4965401;28;20363;-67
2023/06/21 05:49:42;;;;;;;14.50;12.23;;;;;;;23.25;63.45;96346.44;4965223;28;20174;-70
2023/06/21 05:52:08;;;;;;;18.40;11.60;;;;;;;23.73;62.12;96344.50;4964180;28;20189;-69
2023/06/21 05:54:33;;;;;;;12.90;10.37;;;;;;;24.08;60.35;96349.09;4965843;28;20176;-70
2023/06/21 05:56:58;;;;;;;12.37;10.77;;;;;;;24.32;59.52;96345.78;4965529;28;20599;-69
2023/06/21 05:59:24;;;;;;;14.70;10.90;;;;;;;24.48;58.50;96342.44;4953484;28;20182;-67
2023/06/21 06:01:49;;;;;;;46.07;15.03;;;;;;;24.56;60.21;96355.09;4946088;28;20205;-68
2023/06/21 06:04:15;;;;;;;30.13;12.70;;;;;;;24.70;59.30;96350.00;4944852;28;20177;-70
2023/06/21 06:06:41;;;;;;;23.33;10.80;;;;;;;25.06;57.25;96343.69;4959025;28;20234;-67
2023/06/21 06:09:11;;;;;;;14.60;13.07;;;;;;;24.05;60.43;96347.56;4966198;28;20169;-69
2023/06/21 06:11:37;;;;;;;24.30;14.63;;;;;;;23.66;61.54;96355.81;4968086;28;20472;-68
2023/06/21 06:14:03;;;;;;;16.83;13.93;;;;;;;23.83;62.16;96351.50;4966629;28;20409;-67
2023/06/21 06:16:29;;;;;;;24.00;14.73;;;;;;;24.11;61.74;96348.78;4967590;28;20416;-68
2023/06/21 06:18:54;;;;;;;17.60;14.30;;;;;;;23.63;62.88;96352.59;4967544;28;20609;-67
2023/06/21 06:21:21;;;;;;;99.27;21.60;;;;;;;23.92;62.68;96351.59;4968324;28;20185;-68
2023/06/21 06:23:51;;;;;;;43.97;15.10;;;;;;;24.43;60.50;96350.09;4966300;28;20177;-68
2023/06/21 06:26:22;;;;;;;20.23;14.40;;;;;;;24.42;59.95;96351.06;4966703;28;20471;-68
2023/06/21 06:28:49;;;;;;;22.80;15.00;;;;;;;24.88;58.53;96351.81;4967030;28;20760;-68
2023/06/21 06:31:15;;;;;;;37.63;14.90;;;;;;;24.82;58.18;96344.38;4967033;28;20413;-69
2023/06/21 06:33:43;;;;;;;23.73;11.30;;;;;;;25.38;56.31;96342.22;4966738;28;20423;-73
2023/06/21 06:36:08;;;;;;;21.70;13.63;;;;;;;25.70;55.37;96347.72;4968523;28;20180;-68
2023/06/21 06:38:35;;;;;;;24.13;15.70;;;;;;;26.02;54.36;96346.16;4966570;28;20404;-67
2023/06/21 06:41:00;;;;;;;21.53;16.67;;;;;;;26.17;53.07;96343.66;4966437;28;20173;-69
2023/06/21 06:43:29;;;;;;;19.90;14.90;;;;;;;26.05;53.61;96344.97;4965904;28;20448;-69
2023/06/21 06:45:54;;;;;;;15.23;12.90;;;;;;;26.03;54.09;96347.00;4966488;28;20691;-68
2023/06/21 06:48:19;;;;;;;14.07;12.63;;;;;;;25.96;53.81;96339.59;4966846;28;20417;-70
2023/06/21 06:50:45;;;;;;;22.53;13.23;;;;;;;26.05;53.75;96344.97;4966595;28;20185;-68
2023/06/21 06:53:10;;;;;;;14.37;12.33;;;;;;;26.11;53.42;96341.66;4966043;28;21126;-69
2023/06/21 06:55:36;;;;;;;16.23;12.83;;;;;;;26.39;52.88;96329.56;4966582;28;20173;-69
2023/06/21 06:58:01;;;;;;;15.47;13.00;;;;;;;25.13;55.85;96326.81;4966799;28;20515;-69
2023/06/21 07:00:27;;;;;;;20.13;12.03;;;;;;;25.55;55.39;96338.59;4966241;28;20545;-67
2023/06/21 07:02:56;;;;;;;18.00;12.73;;;;;;;25.54;54.94;96340.44;4967539;28;20602;-68
2023/06/21 07:05:23;;;;;;;15.63;13.97;;;;;;;25.29;55.16;96344.00;4966448;28;20205;-68
2023/06/21 07:07:48;;;;;;;16.97;13.53;;;;;;;25.17;56.13;96340.72;4966994;28;20752;-68
2023/06/21 07:10:14;;;;;;;15.27;12.73;;;;;;;25.77;53.15;96331.78;4964770;28;20424;-69
2023/06/21 07:12:39;;;;;;;14.23;12.87;;;;;;;25.49;54.09;96336.53;4967372;28;20193;-68
2023/06/21 07:15:05;;;;;;;19.70;12.97;;;;;;;25.83;53.60;96333.81;4966161;28;20252;-67
2023/06/21 07:17:30;;;;;;;20.00;14.70;;;;;;;26.22;51.95;96330.56;4966420;28;20180;-69
2023/06/21 07:19:56;;;;;;;14.53;12.77;;;;;;;25.71;53.87;96327.06;4966330;28;20628;-67
2023/06/21 07:22:22;;;;;;;19.00;13.70;;;;;;;26.00;54.39;96328.50;4967047;28;20229;-69
2023/06/21 07:24:47;;;;;;;22.50;13.40;;;;;;;26.27;53.43;96325.53;4966240;28;20304;-68
2023/06/21 07:27:13;;;;;;;22.53;11.20;;;;;;;26.57;51.91;96325.88;4969632;28;20802;-68
2023/06/21 07:29:38;;;;;;;33.53;14.27;;;;;;;26.91;51.35;96324.88;4969976;28;20200;-69
2023/06/21 07:32:04;;;;;;;19.47;14.00;;;;;;;26.92;52.29;96321.97;4969922;28;20745;-69
2023/06/21 07:34:29;;;;;;;25.93;15.50;;;;;;;26.68;52.10;96319.34;4969592;28;20165;-68
2023/06/21 07:36:55;;;;;;;23.80;14.60;;;;;;;26.63;52.62;96305.56;4970586;28;20178;-67
2023/06/21 07:39:21;;;;;;;20.00;14.43;;;;;;;26.03;52.25;96294.03;4970130;28;20181;-68
2023/06/21 07:41:46;;;;;;;15.13;13.40;;;;;;;26.34;53.00;96291.56;4969809;28;20276;-67
2023/06/21 07:44:12;;;;;;;27.17;14.20;;;;;;;26.36;52.81;96305.69;4969225;28;20189;-68
2023/06/21 07:46:38;;;;;;;30.93;15.20;;;;;;;26.34;53.11;96304.16;4970339;28;20185;-69
2023/06/21 07:49:03;;;;;;;18.83;13.87;;;;;;;26.28;53.27;96304.84;4969855;28;20241;-68
2023/06/21 07:51:28;;;;;;;12.97;11.67;;;;;;;25.53;50.65;96319.94;4969715;28;20259;-68
2023/06/21 07:53:54;;;;;;;20.03;11.60;;;;;;;25.40;49.54;96308.81;4969403;28;20178;-68
2023/06/21 07:56:19;;;;;;;36.17;12.77;;;;;;;26.38;49.15;96309.03;4969573;28;20176;-67
2023/06/21 07:58:46;;;;;;;14.17;12.80;;;;;;;25.89;50.80;96308.13;4969009;28;21074;-68
2023/06/21 08:01:12;;;;;;;20.57;15.50;;;;;;;26.28;51.22;96297.59;4969744;28;20272;-69
2023/06/21 08:03:37;;;;;;;16.00;14.40;;;;;;;26.40;50.30;96307.03;4968871;28;20565;-69
2023/06/21 08:06:03;;;;;;;13.73;11.47;;;;;;;26.84;48.25;96297.78;4969523;28;20208;-67
2023/06/21 08:08:28;;;;;;;17.00;15.40;;;;;;;26.25;48.41;96300.66;4969561;28;20651;-67
2023/06/21 08:10:56;;;;;;;17.20;15.47;;;;;;;26.11;49.48;96290.56;4968960;28;20177;-69
2023/06/21 08:13:22;;;;;;;16.73;11.87;;;;;;;26.57;47.64;96301.66;4968073;28;20201;-67
2023/06/21 08:15:48;;;;;;;12.93;10.47;;;;;;;26.61;47.45;96303.84;4969196;28;20823;-69
2023/06/21 08:18:13;;;;;;;16.60;10.40;;;;;;;26.41;48.01;96318.66;4968233;28;20429;-68
2023/06/21 08:20:40;;;;;;;14.50;11.20;;;;;;;26.62;47.94;96323.53;4968765;28;20185;-69
2023/06/21 08:23:06;;;;;;;13.00;11.07;;;;;;;26.72;46.81;96337.66;4968689;28;20375;-67
2023/06/21 08:25:32;;;;;;;13.90;9.47;;;;;;;26.97;46.59;96341.16;4968551;28;20855;-66
2023/06/21 08:27:57;;;;;;;15.00;8.37;;;;;;;27.06;46.75;96338.47;4968604;28;20434;-68
2023/06/21 08:30:23;;;;;;;10.90;9.10;;;;;;;27.31;46.01;96341.94;4968550;28;20439;-68
2023/06/21 08:32:48;;;;;;;16.17;12.10;;;;;;;27.32;46.02;96328.31;4968288;28;20204;-70
2023/06/21 08:35:13;;;;;;;13.73;10.90;;;;;;;27.42;45.69;96334.31;4968787;28;20208;-66
2023/06/21 08:37:39;;;;;;;13.43;11.30;;;;;;;27.20;46.17;96318.94;4968574;28;20177;-67
2023/06/21 08:40:07;;;;;;;12.37;9.40;;;;;;;27.59;45.55;96320.78;4970508;28;20556;-68
2023/06/21 08:42:33;;;;;;;12.53;10.70;;;;;;;27.39;46.47;96318.50;4968708;28;20448;-68
2023/06/21 08:44:58;;;;;;;16.00;12.10;;;;;;;27.38;46.24;96334.84;4972396;28;20463;-67
2023/06/21 08:47:28;;;;;;;30.03;10.90;;;;;;;27.24;44.65;96341.81;4975892;28;20697;-69
2023/06/21 08:49:57;;;;;;;17.80;10.10;;;;;;;27.25;45.95;96330.03;4974016;28;20174;-69
2023/06/21 08:52:27;;;;;;;19.33;11.60;;;;;;;27.07;45.95;96335.56;4971571;28;20437;-68
2023/06/21 08:55:16;;;;;;;20.00;12.70;;;;;;;26.38;48.67;96357.47;4971097;28;20416;-68
2023/06/21 08:57:58;;;;;;;23.67;11.70;;;;;;;26.64;48.08;96383.41;4969559;28;20523;-68
2023/06/21 09:00:50;;;;;;;16.67;12.00;;;;;;;26.54;48.02;96421.28;4952579;28;20413;-68
2023/06/21 09:03:32;;;;;;;15.00;10.80;;;;;;;26.47;48.65;96455.19;4948824;28;21250;-68
2023/06/21 09:06:13;;;;;;;16.57;12.03;;;;;;;26.43;48.75;96523.81;4949239;28;20790;-68
2023/06/21 09:08:40;;;;;;;13.17;11.80;;;;;;;26.34;49.62;96645.84;4949009;28;20409;-67
2023/06/21 09:11:07;;;;;;;12.63;10.70;;;;;;;26.03;52.03;96756.59;4949035;28;21054;-68
2023/06/21 09:13:34;;;;;;;20.67;10.10;;;;;;;24.45;56.75;96726.31;4946600;28;20424;-70
2023/06/21 09:16:01;;;;;;;19.37;8.10;;;;;;;23.57;56.65;96686.19;4949118;28;20406;-69
2023/06/21 09:18:35;;;;;;;34.63;9.50;;;;;;;23.34;57.33;96645.47;4949087;28;20903;-69
2023/06/21 09:21:02;;;;;;;36.83;10.10;;;;;;;23.37;56.97;96590.78;4949246;28;20432;-69
2023/06/21 09:23:27;;;;;;;61.07;12.90;;;;;;;23.13;57.91;96546.56;4948966;28;20434;-69
2023/06/21 09:25:52;;;;;;;36.23;10.80;;;;;;;23.08;58.76;96516.69;4949245;28;20461;-68
2023/06/21 09:28:18;;;;;;;51.90;10.43;;;;;;;22.97;57.60;96503.41;4949243;28;20598;-68
2023/06/21 09:30:44;;;;;;;29.17;8.43;;;;;;;22.04;60.33;96512.66;4949487;28;20886;-68
2023/06/21 09:33:10;;;;;;;24.63;8.70;;;;;;;21.99;60.85;96518.41;4948662;28;20866;-69
2023/06/21 09:35:38;;;;;;;31.30;8.17;;;;;;;21.56;61.83;96511.47;4948585;28;20170;-68
2023/06/21 09:38:26;;;;;;;22.87;8.70;;;;;;;21.61;61.12;96509.25;4948999;29;20178;-68
2023/06/21 09:40:52;;;;;;;25.93;10.67;;;;;;;21.46;63.11;96531.94;4948271;28;20425;-68
2023/06/21 09:43:20;;;;;;;17.70;8.23;;;;;;;21.55;61.98;96531.16;4963202;28;20429;-68
2023/06/21 09:46:05;;;;;;;33.70;10.07;;;;;;;21.75;61.31;96506.22;4968943;28;20277;-69
2023/06/21 09:48:35;;;;;;;93.20;15.80;;;;;;;22.14;61.03;96517.06;4969360;28;20543;-69
2023/06/21 09:51:05;;;;;;;59.27;11.13;;;;;;;22.56;60.35;96527.63;4967520;28;20429;-68
2023/06/21 09:53:31;;;;;;;26.67;8.80;;;;;;;22.61;58.48;96535.22;4969043;28;20581;-68
2023/06/21 09:55:59;;;;;;;35.80;8.07;;;;;;;22.73;58.85;96523.41;4967804;28;20994;-69
2023/06/21 09:58:24;;;;;;;38.97;9.07;;;;;;;22.55;58.31;96531.25;4968139;28;20456;-69
2023/06/21 10:00:50;;;;;;;26.13;9.03;;;;;;;22.38;58.71;96530.09;4967748;28;20545;-69
2023/06/21 10:03:16;;;;;;;32.47;9.30;;;;;;;22.36;59.04;96529.41;4967138;28;20630;-67
2023/06/21 10:05:57;;;;;;;26.10;8.10;;;;;;;21.97;60.80;96515.91;4966997;28;20289;-69
2023/06/21 10:08:33;;;;;;;26.53;7.87;;;;;;;22.01;60.19;96521.78;4967403;28;20182;-68
2023/06/21 10:10:59;;;;;;;19.33;7.40;;;;;;;21.53;61.44;96531.28;4967485;28;20913;-69
2023/06/21 10:13:30;;;;;;;20.33;7.00;;;;;;;21.69;61.88;96525.47;4966860;28;20465;-69
2023/06/21 10:15:58;;;;;;;22.57;7.67;;;;;;;21.79;61.25;96522.84;4967023;28;21224;-70
2023/06/21 10:18:24;;;;;;;23.20;8.00;;;;;;;21.94;60.96;96532.16;4967314;28;20409;-68
2023/06/21 10:20:56;;;;;;;24.90;7.43;;;;;;;22.16;60.69;96522.28;4967208;28;20424;-69
2023/06/21 10:23:26;;;;;;;27.23;7.77;;;;;;;22.06;60.80;96514.22;4966596;28;20264;-69
2023/06/21 10:25:56;;;;;;;55.93;11.40;;;;;;;22.44;60.00;96517.16;4967692;28;20470;-68
2023/06/21 10:28:26;;;;;;;25.63;9.53;;;;;;;22.37;59.97;96516.88;4966797;28;20471;-69
2023/06/21 10:30:56;;;;;;;44.70;9.33;;;;;;;22.30;59.74;96513.91;4967837;28;20419;-69
2023/06/21 10:33:22;;;;;;;30.63;8.80;;;;;;;22.31;60.73;96506.72;4967015;28;20516;-69
2023/06/21 10:35:49;;;;;;;40.20;10.00;;;;;;;22.48;61.56;96506.06;4967048;28;20409;-69
2023/06/21 10:38:17;;;;;;;26.30;8.77;;;;;;;22.32;62.98;96514.63;4967443;28;20417;-68
2023/06/21 10:40:43;;;;;;;44.40;12.77;;;;;;;22.69;61.24;96503.25;4967623;28;20466;-68
2023/06/21 10:43:10;;;;;;;33.70;9.17;;;;;;;22.91;60.33;96514.66;4967357;28;20810;-69
2023/06/21 10:45:36;;;;;;;47.73;10.53;;;;;;;22.95;58.70;96500.88;4967342;28;20523;-69
2023/06/21 10:48:05;;;;;;;30.83;9.80;;;;;;;22.86;58.67;96498.19;4967055;28;20417;-67
2023/06/21 10:50:30;;;;;;;33.63;9.20;;;;;;;22.87;60.25;96503.41;4967804;28;20417;-69
2023/06/21 10:52:58;;;;;;;40.50;11.07;;;;;;;23.02;59.76;96506.53;4967007;28;20470;-68
2023/06/21 10:55:23;;;;;;;34.03;10.87;;;;;;;22.75;60.24;96501.88;4967445;28;20180;-69
2023/06/21 10:57:54;;;;;;;29.60;9.60;;;;;;;23.28;57.73;96498.75;4967128;28;20723;-69
2023/06/21 11:00:22;;;;;;;43.60;10.30;;;;;;;23.37;57.46;96503.25;4967197;28;20180;-68
2023/06/21 11:02:47;;;;;;;135.17;18.90;;;;;;;23.51;56.41;96507.31;4970930;28;20464;-68
2023/06/21 11:05:22;;;;;;;137.20;19.87;;;;;;;23.63;56.75;96505.31;4970491;28;20491;-69
2023/06/21 11:07:53;;;;;;;55.93;12.97;;;;;;;23.53;57.58;96505.34;4971284;28;20177;-69
2023/06/21 11:10:43;;;;;;;63.20;16.57;;;;;;;23.73;56.26;96519.50;4970947;28;20424;-69
2023/06/21 11:13:10;;;;;;;49.50;13.00;;;;;;;23.88;55.88;96512.72;4965285;28;20444;-67
2023/06/21 11:15:41;;;;;;;39.33;10.00;;;;;;;24.16;54.96;96506.53;4970931;28;20901;-68
2023/06/21 11:18:10;;;;;;;54.37;12.53;;;;;;;24.32;54.96;96506.72;4970762;28;20428;-68
2023/06/21 11:20:47;;;;;;;39.17;9.27;;;;;;;24.36;54.75;96508.09;4970863;28;21138;-68